createdAt,value
2017-02-17T00:00:32.921Z,12.49
2017-02-17T00:01:13.403Z,12.52
2017-02-17T00:01:53.916Z,12.37
2017-02-17T00:02:34.392Z,12.49
2017-02-17T00:03:14.875Z,12.37
2017-02-17T00:03:55.415Z,12.38
2017-02-17T00:04:35.928Z,12.5
2017-02-17T00:05:16.450Z,12.41
2017-02-17T00:05:57.006Z,12.46
2017-02-17T00:06:37.464Z,12.41
2017-02-17T00:07:17.938Z,12.45
2017-02-17T00:07:58.469Z,12.41
2017-02-17T00:08:38.982Z,12.5
2017-02-17T00:09:19.512Z,12.52
2017-02-17T00:10:00.039Z,12.5
2017-02-17T00:10:40.531Z,12.39
2017-02-17T00:11:21.008Z,12.5
2017-02-17T00:12:01.637Z,12.59
2017-02-17T00:12:42.159Z,12.57
2017-02-17T00:13:22.636Z,12.52
2017-02-17T00:14:03.140Z,12.49
2017-02-17T00:14:43.664Z,12.52
2017-02-17T00:15:24.203Z,12.64
2017-02-17T00:16:04.665Z,12.52
2017-02-17T00:16:45.187Z,12.57
2017-02-17T00:17:25.683Z,12.65
2017-02-17T00:18:06.199Z,12.7
2017-02-17T00:18:46.730Z,12.64
2017-02-17T00:19:27.250Z,12.64
2017-02-17T00:20:07.743Z,12.62
2017-02-17T00:20:48.263Z,12.71
2017-02-17T00:21:28.791Z,12.7
2017-02-17T00:22:09.303Z,12.59
2017-02-17T00:22:49.817Z,12.53
2017-02-17T00:23:30.301Z,12.53
2017-02-17T00:24:10.809Z,12.53
2017-02-17T00:24:51.304Z,12.62
2017-02-17T00:25:31.810Z,12.62
2017-02-17T00:26:12.311Z,12.52
2017-02-17T00:26:52.807Z,12.52
2017-02-17T00:27:33.339Z,12.49
2017-02-17T00:28:13.861Z,12.56
2017-02-17T00:28:54.398Z,12.67
2017-02-17T00:29:34.876Z,12.68
2017-02-17T00:30:15.396Z,12.68
2017-02-17T00:30:55.940Z,12.74
2017-02-17T00:31:36.431Z,12.62
2017-02-17T00:32:16.948Z,12.68
2017-02-17T00:32:57.474Z,12.71
2017-02-17T00:33:38.007Z,12.67
2017-02-17T00:34:18.537Z,12.62
2017-02-17T00:34:59.023Z,12.56
2017-02-17T00:35:39.537Z,12.54
2017-02-17T00:36:20.040Z,12.59
2017-02-17T00:37:00.556Z,12.67
2017-02-17T00:37:41.080Z,12.59
2017-02-17T00:38:21.589Z,12.6
2017-02-17T00:39:02.149Z,12.7
2017-02-17T00:39:42.663Z,12.59
2017-02-17T00:40:23.209Z,12.54
2017-02-17T00:41:03.709Z,12.68
2017-02-17T00:41:44.229Z,12.59
2017-02-17T00:42:24.712Z,12.62
2017-02-17T00:43:05.245Z,12.7
2017-02-17T00:43:45.748Z,12.67
2017-02-17T00:44:26.273Z,12.72
2017-02-17T00:45:06.776Z,12.59
2017-02-17T00:45:47.268Z,12.57
2017-02-17T00:46:27.781Z,12.59
2017-02-17T00:47:08.280Z,12.56
2017-02-17T00:47:48.777Z,12.53
2017-02-17T00:48:29.241Z,12.54
2017-02-17T00:49:09.794Z,12.6
2017-02-17T00:49:50.238Z,12.52
2017-02-17T00:50:30.790Z,12.67
2017-02-17T00:51:11.327Z,12.6
2017-02-17T00:51:51.852Z,12.47
2017-02-17T00:52:32.308Z,12.52
2017-02-17T00:53:12.854Z,12.5
2017-02-17T00:53:53.289Z,12.49
2017-02-17T00:54:33.809Z,12.53
2017-02-17T00:55:14.335Z,12.64
2017-02-17T00:55:54.784Z,12.53
2017-02-17T00:56:35.339Z,12.53
2017-02-17T00:57:15.838Z,12.64
2017-02-17T00:57:56.311Z,12.52
2017-02-17T00:58:36.790Z,12.62
2017-02-17T00:59:17.295Z,12.53
2017-02-17T00:59:57.734Z,12.56
2017-02-17T01:00:38.225Z,12.64
2017-02-17T01:01:18.775Z,12.6
2017-02-17T01:01:59.237Z,12.57
2017-02-17T01:02:39.754Z,12.6
2017-02-17T01:03:20.271Z,12.67
2017-02-17T01:04:00.716Z,12.64
2017-02-17T01:04:41.212Z,12.59
2017-02-17T01:05:21.707Z,12.64
2017-02-17T01:06:02.179Z,12.6
2017-02-17T01:06:42.687Z,12.71
2017-02-17T01:07:23.175Z,12.72
2017-02-17T01:08:03.662Z,12.7
2017-02-17T01:08:44.199Z,12.67
2017-02-17T01:09:24.733Z,12.75
2017-02-17T01:10:05.217Z,12.67
2017-02-17T01:10:45.688Z,12.74
2017-02-17T01:11:26.203Z,12.7
2017-02-17T01:12:06.710Z,12.71
2017-02-17T01:12:47.179Z,12.72
2017-02-17T01:13:27.683Z,12.7
2017-02-17T01:14:08.183Z,12.74
2017-02-17T01:14:48.730Z,12.65
2017-02-17T01:15:29.207Z,12.72
2017-02-17T01:16:09.728Z,12.54
2017-02-17T01:16:50.239Z,12.53
2017-02-17T01:17:30.735Z,12.6
2017-02-17T01:18:11.217Z,12.54
2017-02-17T01:18:51.709Z,12.54
2017-02-17T01:19:32.211Z,12.62
2017-02-17T01:20:12.730Z,12.56
2017-02-17T01:20:53.199Z,12.57
2017-02-17T01:21:33.722Z,12.52
2017-02-17T01:22:14.219Z,12.56
2017-02-17T01:22:54.729Z,12.52
2017-02-17T01:23:35.231Z,12.5
2017-02-17T01:24:15.762Z,12.47
2017-02-17T01:24:56.211Z,12.53
2017-02-17T01:25:36.692Z,12.46
2017-02-17T01:26:17.203Z,12.47
2017-02-17T01:26:57.724Z,12.5
2017-02-17T01:27:38.218Z,12.5
2017-02-17T01:28:18.739Z,12.5
2017-02-17T01:28:59.211Z,12.46
2017-02-17T01:29:39.721Z,12.45
2017-02-17T01:30:20.232Z,12.49
2017-02-17T01:31:00.755Z,12.52
2017-02-17T01:31:41.243Z,12.41
2017-02-17T01:32:21.764Z,12.52
2017-02-17T01:33:02.302Z,12.39
2017-02-17T01:33:42.820Z,12.39
2017-02-17T01:34:23.333Z,12.39
2017-02-17T01:35:04.127Z,12.45
2017-02-17T01:35:44.673Z,12.37
2017-02-17T01:36:25.148Z,12.39
2017-02-17T01:37:05.688Z,12.41
2017-02-17T01:37:46.149Z,12.47
2017-02-17T01:38:26.657Z,12.42
2017-02-17T01:39:07.176Z,12.46
2017-02-17T01:39:47.688Z,12.42
2017-02-17T01:40:28.309Z,12.38
2017-02-17T01:41:08.779Z,12.49
2017-02-17T01:41:49.313Z,12.39
2017-02-17T01:42:29.818Z,12.42
2017-02-17T01:43:10.321Z,12.31
2017-02-17T01:43:50.856Z,12.31
2017-02-17T01:44:31.344Z,12.35
2017-02-17T01:45:11.830Z,12.39
2017-02-17T01:45:52.345Z,12.42
2017-02-17T01:46:32.853Z,12.34
2017-02-17T01:47:13.361Z,12.37
2017-02-17T01:47:53.869Z,12.52
2017-02-17T01:48:34.401Z,12.49
2017-02-17T01:49:14.859Z,12.49
2017-02-17T01:49:55.386Z,12.42
2017-02-17T01:50:35.903Z,12.39
2017-02-17T01:51:16.395Z,12.31
2017-02-17T01:51:56.969Z,12.41
2017-02-17T01:52:37.411Z,12.52
2017-02-17T01:53:17.950Z,12.38
2017-02-17T01:53:58.419Z,12.41
2017-02-17T01:54:38.917Z,12.38
2017-02-17T01:55:19.422Z,12.46
2017-02-17T01:55:59.940Z,12.41
2017-02-17T01:56:40.456Z,12.49
2017-02-17T01:57:20.979Z,12.39
2017-02-17T01:58:01.443Z,12.41
2017-02-17T01:58:41.959Z,12.35
2017-02-17T01:59:22.460Z,12.35
2017-02-17T02:00:02.983Z,12.35
2017-02-17T02:00:43.533Z,12.34
2017-02-17T02:01:24.021Z,12.42
2017-02-17T02:02:04.553Z,12.34
2017-02-17T02:02:45.050Z,12.34
2017-02-17T02:03:25.545Z,12.29
2017-02-17T02:04:06.050Z,12.34
2017-02-17T02:04:46.555Z,12.31
2017-02-17T02:05:27.065Z,12.35
2017-02-17T02:06:07.593Z,12.37
2017-02-17T02:06:48.083Z,12.38
2017-02-17T02:07:28.607Z,12.46
2017-02-17T02:08:09.123Z,12.38
2017-02-17T02:08:49.628Z,12.42
2017-02-17T02:09:30.152Z,12.28
2017-02-17T02:10:10.626Z,12.31
2017-02-17T02:10:51.181Z,12.27
2017-02-17T02:11:31.683Z,12.31
2017-02-17T02:12:12.156Z,12.19
2017-02-17T02:12:52.656Z,12.28
2017-02-17T02:13:33.178Z,12.27
2017-02-17T02:14:13.704Z,12.38
2017-02-17T02:14:54.183Z,12.35
2017-02-17T02:15:34.705Z,12.38
2017-02-17T02:16:15.239Z,12.34
2017-02-17T02:16:55.718Z,12.39
2017-02-17T02:17:36.233Z,12.37
2017-02-17T02:18:16.735Z,12.46
2017-02-17T02:18:57.296Z,12.34
2017-02-17T02:19:37.789Z,12.31
2017-02-17T02:20:18.242Z,12.24
2017-02-17T02:20:58.727Z,12.24
2017-02-17T02:21:39.222Z,12.24
2017-02-17T02:22:19.725Z,12.28
2017-02-17T02:23:00.239Z,12.27
2017-02-17T02:23:40.779Z,12.31
2017-02-17T02:24:21.263Z,12.37
2017-02-17T02:25:01.787Z,12.39
2017-02-17T02:25:42.289Z,12.41
2017-02-17T02:26:22.801Z,12.35
2017-02-17T02:27:03.296Z,12.29
2017-02-17T02:27:43.813Z,12.31
2017-02-17T02:28:24.336Z,12.2
2017-02-17T02:29:04.852Z,12.29
2017-02-17T02:29:45.383Z,12.09
2017-02-17T02:30:25.835Z,12.1
2017-02-17T02:31:06.348Z,12.34
2017-02-17T02:31:46.839Z,12.28
2017-02-17T02:32:27.343Z,12.34
2017-02-17T02:33:07.846Z,12.45
2017-02-17T02:33:48.407Z,12.35
2017-02-17T02:34:28.867Z,12.38
2017-02-17T02:35:09.376Z,12.42
2017-02-17T02:35:49.887Z,12.34
2017-02-17T02:36:30.385Z,12.37
2017-02-17T02:37:10.878Z,12.37
2017-02-17T02:37:51.427Z,12.34
2017-02-17T02:38:31.901Z,12.39
2017-02-17T02:39:12.392Z,12.37
2017-02-17T02:39:52.888Z,12.35
2017-02-17T02:40:33.383Z,12.34
2017-02-17T02:41:13.886Z,12.38
2017-02-17T02:41:54.404Z,12.32
2017-02-17T02:42:35.021Z,12.41
2017-02-17T02:43:15.424Z,12.23
2017-02-17T02:43:55.957Z,12.27
2017-02-17T02:44:37.131Z,12.23
2017-02-17T02:45:17.626Z,12.2
2017-02-17T02:45:58.162Z,12.27
2017-02-17T02:46:38.721Z,12.23
2017-02-17T02:47:19.202Z,12.32
2017-02-17T02:47:59.706Z,12.24
2017-02-17T02:48:40.204Z,12.29
2017-02-17T02:49:20.722Z,12.31
2017-02-17T02:50:01.220Z,12.41
2017-02-17T02:50:41.741Z,12.29
2017-02-17T02:51:22.230Z,12.29
2017-02-17T02:52:02.719Z,12.14
2017-02-17T02:52:43.231Z,12.12
2017-02-17T02:53:23.742Z,12.09
2017-02-17T02:54:04.250Z,12.13
2017-02-17T02:54:44.777Z,12.19
2017-02-17T02:55:25.336Z,12.2
2017-02-17T02:56:05.788Z,12.28
2017-02-17T02:56:46.274Z,12.28
2017-02-17T02:57:26.771Z,12.24
2017-02-17T02:58:07.262Z,12.28
2017-02-17T02:58:47.806Z,12.28
2017-02-17T02:59:28.301Z,12.27
2017-02-17T03:00:08.816Z,12.29
2017-02-17T03:00:49.318Z,12.24
2017-02-17T03:01:29.829Z,12.37
2017-02-17T03:02:10.347Z,12.38
2017-02-17T03:02:50.856Z,12.28
2017-02-17T03:03:31.390Z,12.31
2017-02-17T03:04:11.893Z,12.31
2017-02-17T03:04:52.389Z,12.2
2017-02-17T03:05:32.896Z,12.29
2017-02-17T03:06:13.404Z,12.32
2017-02-17T03:06:53.934Z,12.24
2017-02-17T03:07:34.432Z,12.34
2017-02-17T03:08:14.936Z,12.31
2017-02-17T03:08:55.466Z,12.24
2017-02-17T03:09:35.966Z,12.32
2017-02-17T03:10:16.459Z,12.14
2017-02-17T03:10:56.951Z,12.28
2017-02-17T03:11:37.492Z,12.14
2017-02-17T03:12:17.970Z,12.13
2017-02-17T03:12:58.468Z,12.17
2017-02-17T03:13:39.006Z,12.14
2017-02-17T03:14:19.544Z,12.28
2017-02-17T03:15:00.076Z,12.29
2017-02-17T03:15:40.548Z,12.38
2017-02-17T03:16:21.061Z,12.34
2017-02-17T03:17:01.568Z,12.39
2017-02-17T03:17:42.098Z,12.35
2017-02-17T03:18:22.615Z,12.29
2017-02-17T03:19:03.091Z,12.23
2017-02-17T03:19:43.618Z,12.19
2017-02-17T03:20:24.190Z,12.21
2017-02-17T03:21:04.710Z,12.16
2017-02-17T03:21:45.191Z,12.09
2017-02-17T03:22:25.669Z,12.12
2017-02-17T03:23:06.181Z,12.07
2017-02-17T03:23:46.733Z,12.14
2017-02-17T03:24:27.210Z,12.27
2017-02-17T03:25:07.722Z,12.1
2017-02-17T03:25:48.211Z,12.29
2017-02-17T03:26:28.701Z,12.32
2017-02-17T03:27:09.205Z,12.35
2017-02-17T03:27:49.725Z,12.38
2017-02-17T03:28:30.190Z,12.28
2017-02-17T03:29:10.905Z,12.21
2017-02-17T03:29:51.414Z,12.28
2017-02-17T03:30:31.939Z,12.29
2017-02-17T03:31:12.444Z,12.34
2017-02-17T03:31:52.961Z,12.27
2017-02-17T03:32:33.459Z,12.24
2017-02-17T03:33:13.976Z,12.29
2017-02-17T03:33:54.469Z,12.29
2017-02-17T03:34:34.986Z,12.27
2017-02-17T03:35:15.492Z,12.14
2017-02-17T03:35:56.029Z,12.17
2017-02-17T03:36:36.529Z,12.14
2017-02-17T03:37:17.034Z,12.14
2017-02-17T03:37:57.531Z,12.16
2017-02-17T03:38:38.027Z,12.12
2017-02-17T03:39:18.541Z,12.05
2017-02-17T03:39:59.060Z,11.99
2017-02-17T03:40:39.570Z,12.05
2017-02-17T03:41:20.075Z,12.1
2017-02-17T03:42:00.591Z,12.01
2017-02-17T03:42:41.103Z,12.1
2017-02-17T03:43:21.604Z,12.12
2017-02-17T03:44:02.090Z,12.01
2017-02-17T03:44:42.608Z,12.17
2017-02-17T03:45:23.116Z,12.14
2017-02-17T03:46:03.626Z,12.14
2017-02-17T03:46:44.122Z,12.21
2017-02-17T03:47:24.644Z,12.07
2017-02-17T03:48:05.139Z,12.12
2017-02-17T03:48:45.647Z,12.23
2017-02-17T03:49:26.129Z,12.1
2017-02-17T03:50:06.655Z,12.24
2017-02-17T03:50:47.155Z,12.14
2017-02-17T03:51:27.668Z,12.16
2017-02-17T03:52:08.164Z,12.23
2017-02-17T03:52:48.692Z,12.28
2017-02-17T03:53:29.225Z,12.28
2017-02-17T03:54:09.709Z,12.16
2017-02-17T03:54:50.258Z,12.17
2017-02-17T03:55:30.806Z,12.1
2017-02-17T03:56:11.282Z,12.16
2017-02-17T03:56:51.796Z,12.12
2017-02-17T03:57:32.294Z,12.07
2017-02-17T03:58:12.788Z,12.13
2017-02-17T03:58:53.294Z,12.21
2017-02-17T03:59:33.794Z,12.28
2017-02-17T04:00:14.297Z,12.09
2017-02-17T04:00:54.811Z,12.29
2017-02-17T04:01:35.318Z,12.31
2017-02-17T04:02:15.845Z,12.14
2017-02-17T04:02:56.348Z,12.27
2017-02-17T04:03:36.893Z,12.28
2017-02-17T04:04:17.360Z,12.13
2017-02-17T04:04:57.874Z,12.19
2017-02-17T04:05:38.392Z,12.12
2017-02-17T04:06:18.917Z,12.14
2017-02-17T04:06:59.434Z,12.1
2017-02-17T04:07:39.921Z,12.2
2017-02-17T04:08:20.427Z,12.1
2017-02-17T04:09:00.939Z,12.14
2017-02-17T04:09:41.511Z,12.21
2017-02-17T04:10:22.043Z,12.13
2017-02-17T04:11:03.348Z,12.12
2017-02-17T04:11:43.050Z,12.19
2017-02-17T04:12:23.572Z,12.27
2017-02-17T04:13:04.074Z,12.24
2017-02-17T04:13:44.590Z,12.13
2017-02-17T04:14:25.116Z,12.27
2017-02-17T04:15:05.612Z,12.21
2017-02-17T04:15:46.115Z,12.09
2017-02-17T04:16:26.621Z,12.16
2017-02-17T04:17:07.143Z,12.2
2017-02-17T04:17:47.590Z,12.24
2017-02-17T04:18:28.088Z,12.28
2017-02-17T04:19:08.594Z,12.24
2017-02-17T04:19:49.097Z,12.13
2017-02-17T04:20:29.608Z,12.13
2017-02-17T04:21:10.145Z,12.16
2017-02-17T04:21:50.593Z,12.23
2017-02-17T04:22:31.111Z,12.19
2017-02-17T04:23:11.603Z,12.24
2017-02-17T04:23:52.146Z,12.14
2017-02-17T04:24:32.642Z,12.24
2017-02-17T04:25:13.167Z,12.13
2017-02-17T04:25:53.648Z,12.17
2017-02-17T04:26:34.128Z,12.16
2017-02-17T04:27:14.660Z,12.1
2017-02-17T04:27:55.202Z,12.07
2017-02-17T04:28:35.759Z,12.02
2017-02-17T04:29:16.284Z,11.98
2017-02-17T04:29:56.839Z,11.94
2017-02-17T04:30:37.333Z,11.96
2017-02-17T04:31:17.829Z,11.98
2017-02-17T04:31:58.346Z,11.96
2017-02-17T04:32:38.841Z,11.94
2017-02-17T04:33:19.308Z,12.01
2017-02-17T04:33:59.816Z,11.9
2017-02-17T04:34:40.321Z,11.99
2017-02-17T04:35:20.846Z,11.98
2017-02-17T04:36:01.337Z,11.88
2017-02-17T04:36:41.827Z,11.99
2017-02-17T04:37:22.338Z,11.99
2017-02-17T04:38:02.847Z,12.01
2017-02-17T04:38:43.360Z,12.04
2017-02-17T04:39:23.859Z,12.02
2017-02-17T04:40:04.338Z,11.95
2017-02-17T04:40:44.850Z,11.9
2017-02-17T04:41:25.363Z,11.79
2017-02-17T04:42:05.874Z,11.82
2017-02-17T04:42:46.446Z,11.79
2017-02-17T04:43:26.892Z,11.79
2017-02-17T04:44:07.396Z,11.88
2017-02-17T04:44:47.932Z,11.83
2017-02-17T04:45:28.444Z,11.79
2017-02-17T04:46:08.961Z,11.72
2017-02-17T04:46:49.509Z,11.62
2017-02-17T04:47:29.971Z,11.61
2017-02-17T04:48:10.474Z,11.69
2017-02-17T04:48:51.074Z,11.69
2017-02-17T04:49:31.588Z,11.65
2017-02-17T04:50:12.069Z,11.79
2017-02-17T04:50:52.573Z,11.76
2017-02-17T04:51:33.078Z,11.76
2017-02-17T04:52:13.585Z,11.7
2017-02-17T04:52:54.101Z,11.72
2017-02-17T04:53:34.591Z,11.61
2017-02-17T04:54:15.127Z,11.69
2017-02-17T04:54:55.611Z,11.54
2017-02-17T04:55:36.152Z,11.61
2017-02-17T04:56:16.610Z,11.58
2017-02-17T04:56:57.105Z,11.57
2017-02-17T04:57:37.636Z,11.65
2017-02-17T04:58:18.157Z,11.58
2017-02-17T04:58:58.634Z,11.67
2017-02-17T04:59:39.156Z,11.55
2017-02-17T05:00:19.661Z,11.58
2017-02-17T05:01:00.168Z,11.52
2017-02-17T05:01:40.660Z,11.51
2017-02-17T05:02:21.178Z,11.42
2017-02-17T05:03:01.695Z,11.44
2017-02-17T05:03:42.200Z,11.52
2017-02-17T05:04:22.712Z,11.47
2017-02-17T05:05:03.217Z,11.55
2017-02-17T05:05:43.724Z,11.6
2017-02-17T05:06:24.239Z,11.73
2017-02-17T05:07:04.755Z,11.62
2017-02-17T05:07:45.258Z,11.58
2017-02-17T05:08:25.805Z,11.58
2017-02-17T05:09:06.303Z,11.64
2017-02-17T05:09:46.789Z,11.72
2017-02-17T05:10:27.316Z,11.67
2017-02-17T05:11:07.807Z,11.69
2017-02-17T05:11:48.318Z,11.67
2017-02-17T05:12:28.821Z,11.7
2017-02-17T05:13:09.356Z,11.72
2017-02-17T05:13:49.826Z,11.67
2017-02-17T05:14:30.328Z,11.73
2017-02-17T05:15:10.859Z,11.67
2017-02-17T05:15:51.335Z,11.73
2017-02-17T05:16:31.824Z,11.75
2017-02-17T05:17:12.341Z,11.76
2017-02-17T05:17:52.851Z,11.75
2017-02-17T05:18:33.364Z,11.78
2017-02-17T05:19:13.904Z,11.78
2017-02-17T05:19:54.357Z,11.79
2017-02-17T05:20:34.870Z,11.8
2017-02-17T05:21:15.378Z,11.76
2017-02-17T05:21:55.882Z,11.94
2017-02-17T05:22:36.412Z,11.82
2017-02-17T05:23:16.894Z,11.88
2017-02-17T05:23:57.416Z,11.88
2017-02-17T05:24:37.870Z,11.82
2017-02-17T05:25:18.378Z,11.86
2017-02-17T05:25:58.989Z,11.88
2017-02-17T05:26:39.516Z,11.79
2017-02-17T05:27:19.967Z,11.76
2017-02-17T05:28:00.588Z,11.8
2017-02-17T05:28:41.055Z,11.83
2017-02-17T05:29:21.578Z,11.79
2017-02-17T05:30:02.081Z,11.8
2017-02-17T05:30:42.706Z,11.79
2017-02-17T05:31:23.109Z,11.98
2017-02-17T05:32:03.620Z,11.91
2017-02-17T05:32:44.138Z,11.82
2017-02-17T05:33:24.621Z,11.88
2017-02-17T05:34:05.156Z,11.91
2017-02-17T05:34:45.644Z,11.82
2017-02-17T05:35:26.178Z,11.76
2017-02-17T05:36:06.696Z,11.65
2017-02-17T05:36:47.148Z,11.72
2017-02-17T05:37:27.660Z,11.73
2017-02-17T05:38:08.151Z,11.44
2017-02-17T05:38:48.655Z,11.58
2017-02-17T05:39:29.163Z,11.44
2017-02-17T05:40:09.714Z,11.46
2017-02-17T05:40:50.243Z,11.58
2017-02-17T05:41:30.675Z,11.65
2017-02-17T05:42:11.203Z,11.69
2017-02-17T05:42:51.686Z,11.65
2017-02-17T05:43:32.154Z,11.65
2017-02-17T05:44:12.682Z,11.73
2017-02-17T05:44:53.194Z,11.54
2017-02-17T05:45:33.693Z,11.64
2017-02-17T05:46:14.191Z,11.61
2017-02-17T05:46:54.920Z,11.72
2017-02-17T05:47:35.470Z,11.69
2017-02-17T05:48:15.981Z,11.6
2017-02-17T05:48:56.417Z,11.51
2017-02-17T05:49:36.904Z,11.51
2017-02-17T05:50:17.387Z,11.62
2017-02-17T05:50:57.904Z,11.72
2017-02-17T05:51:38.393Z,11.61
2017-02-17T05:52:18.903Z,11.64
2017-02-17T05:52:59.419Z,11.46
2017-02-17T05:53:39.914Z,11.47
2017-02-17T05:54:20.409Z,11.51
2017-02-17T05:55:00.948Z,11.52
2017-02-17T05:55:41.472Z,11.64
2017-02-17T05:56:21.952Z,11.64
2017-02-17T05:57:02.458Z,11.65
2017-02-17T05:57:43.691Z,11.67
2017-02-17T05:58:24.208Z,11.6
2017-02-17T05:59:04.785Z,11.54
2017-02-17T05:59:45.357Z,11.52
2017-02-17T06:00:25.810Z,11.54
2017-02-17T06:01:06.360Z,11.52
2017-02-17T06:01:46.886Z,11.52
2017-02-17T06:02:27.318Z,11.39
2017-02-17T06:03:07.844Z,11.49
2017-02-17T06:03:48.341Z,11.54
2017-02-17T06:04:28.832Z,11.44
2017-02-17T06:05:09.537Z,11.55
2017-02-17T06:05:50.020Z,11.62
2017-02-17T06:06:30.513Z,11.62
2017-02-17T06:07:11.002Z,11.72
2017-02-17T06:07:51.592Z,11.67
2017-02-17T06:08:32.059Z,11.62
2017-02-17T06:09:12.654Z,11.7
2017-02-17T06:09:53.199Z,11.69
2017-02-17T06:10:33.830Z,11.67
2017-02-17T06:11:14.358Z,11.73
2017-02-17T06:11:54.836Z,11.79
2017-02-17T06:12:35.445Z,11.75
2017-02-17T06:13:15.933Z,11.83
2017-02-17T06:13:56.471Z,11.83
2017-02-17T06:14:37.534Z,11.75
2017-02-17T06:15:18.019Z,11.86
2017-02-17T06:15:58.542Z,11.78
2017-02-17T06:16:39.211Z,11.86
2017-02-17T06:17:19.755Z,11.85
2017-02-17T06:18:00.286Z,11.95
2017-02-17T06:18:40.719Z,11.98
2017-02-17T06:19:21.266Z,11.95
2017-02-17T06:20:01.748Z,11.94
2017-02-17T06:20:42.324Z,11.91
2017-02-17T06:21:22.873Z,11.94
2017-02-17T06:22:03.334Z,11.95
2017-02-17T06:22:43.857Z,11.96
2017-02-17T06:23:26.639Z,11.99
2017-02-17T06:24:07.170Z,11.95
2017-02-17T06:24:47.650Z,12.05
2017-02-17T06:25:29.026Z,12.13
2017-02-17T06:26:09.575Z,12.09
2017-02-17T06:26:50.146Z,12.16
2017-02-17T06:27:30.684Z,12.12
2017-02-17T06:28:11.162Z,12.09
2017-02-17T06:28:51.718Z,12.02
2017-02-17T06:29:32.176Z,12.05
2017-02-17T06:30:12.692Z,12.12
2017-02-17T06:30:53.254Z,12.17
2017-02-17T06:31:33.776Z,12.1
2017-02-17T06:32:14.307Z,12.14
2017-02-17T06:32:54.817Z,12.14
2017-02-17T06:33:35.662Z,12.17
2017-02-17T06:34:16.005Z,12.21
2017-02-17T06:34:56.800Z,12.12
2017-02-17T06:35:37.412Z,12.28
2017-02-17T06:36:17.849Z,12.1
2017-02-17T06:36:58.383Z,12.23
2017-02-17T06:37:38.912Z,12.13
2017-02-17T06:38:19.464Z,12.24
2017-02-17T06:39:00.183Z,12.42
2017-02-17T06:39:40.731Z,12.49
2017-02-17T06:40:21.261Z,12.65
2017-02-17T06:41:01.806Z,12.77
2017-02-17T06:41:42.273Z,12.87
2017-02-17T06:42:22.831Z,12.77
2017-02-17T06:43:03.465Z,12.77
2017-02-17T06:43:44.039Z,12.79
2017-02-17T06:44:24.921Z,12.79
2017-02-17T06:45:05.234Z,12.71
2017-02-17T06:45:45.831Z,12.65
2017-02-17T06:46:26.504Z,12.62
2017-02-17T06:47:06.982Z,12.52
2017-02-17T06:47:47.674Z,12.49
2017-02-17T06:48:28.815Z,12.52
2017-02-17T06:49:09.336Z,12.46
2017-02-17T06:49:50.480Z,12.34
2017-02-17T06:50:32.908Z,12.41
2017-02-17T06:51:16.207Z,12.37
2017-02-17T06:54:12.057Z,12.46
2017-02-17T06:54:56.657Z,12.49
2017-02-17T06:55:39.933Z,12.54
2017-02-17T06:56:20.758Z,12.5
2017-02-17T06:57:05.981Z,12.28
2017-02-17T06:57:46.540Z,12.35
2017-02-17T06:58:27.599Z,12.27
2017-02-17T06:59:08.458Z,12.41
2017-02-17T06:59:48.808Z,12.28
2017-02-17T07:00:29.501Z,12.17
2017-02-17T07:01:10.124Z,12.28
2017-02-17T07:01:50.565Z,12.12
2017-02-17T07:02:31.209Z,12.14
2017-02-17T07:03:12.108Z,12.1
2017-02-17T07:03:52.635Z,12.04
2017-02-17T07:04:33.134Z,12.04
2017-02-17T07:05:13.656Z,11.99
2017-02-17T07:05:54.509Z,11.94
2017-02-17T07:06:35.453Z,12.04
2017-02-17T07:07:20.006Z,12.02
2017-02-17T07:08:00.407Z,11.99
2017-02-17T07:08:42.282Z,11.95
2017-02-17T07:09:22.773Z,11.91
2017-02-17T07:15:20.202Z,12.13
2017-02-17T07:16:06.759Z,12.49
2017-02-17T07:16:47.533Z,12.65
2017-02-17T07:17:28.274Z,12.74
2017-02-17T07:18:09.044Z,12.71
2017-02-17T07:18:50.239Z,12.74
2017-02-17T07:19:30.743Z,12.97
2017-02-17T07:20:11.351Z,13.11
2017-02-17T07:20:51.806Z,13.2
2017-02-17T07:21:32.495Z,13.44
2017-02-17T07:22:13.228Z,13.45
2017-02-17T07:22:53.719Z,13.39
2017-02-17T07:23:34.177Z,13.55
2017-02-17T07:24:14.700Z,13.41
2017-02-17T07:24:55.731Z,13.45
2017-02-17T07:25:40.340Z,13.48
2017-02-17T07:26:22.343Z,13.48
2017-02-17T07:27:02.816Z,13.48
2017-02-17T07:27:43.335Z,13.42
2017-02-17T07:28:23.816Z,12.97
2017-02-17T07:29:04.318Z,12.75
2017-02-17T07:29:44.844Z,12.72
2017-02-17T07:30:25.375Z,12.71
2017-02-17T07:31:05.861Z,12.56
2017-02-17T07:31:46.317Z,12.75
2017-02-17T07:32:27.423Z,12.95
2017-02-17T07:33:09.409Z,12.96
2017-02-17T07:33:51.373Z,13.12
2017-02-17T07:34:32.033Z,13.36
2017-02-17T07:35:12.997Z,13.28
2017-02-17T07:35:55.729Z,13.04
2017-02-17T07:36:36.228Z,13.01
2017-02-17T07:37:16.702Z,12.96
2017-02-17T07:37:57.925Z,13.17
2017-02-17T07:38:39.951Z,13.25
2017-02-17T07:39:20.909Z,13.25
2017-02-17T07:40:01.412Z,13.23
2017-02-17T07:40:41.971Z,13.11
2017-02-17T07:41:22.380Z,12.93
2017-02-17T07:42:02.883Z,12.78
2017-02-17T07:42:43.356Z,12.86
2017-02-17T07:43:23.907Z,12.7
2017-02-17T07:44:04.391Z,12.72
2017-02-17T07:44:44.871Z,12.68
2017-02-17T07:45:25.417Z,12.75
2017-02-17T07:46:05.905Z,12.67
2017-02-17T07:46:46.429Z,12.65
2017-02-17T07:47:26.922Z,12.59
2017-02-17T07:48:07.372Z,12.54
2017-02-17T07:48:47.886Z,12.57
2017-02-17T07:49:28.448Z,12.65
2017-02-17T07:50:09.091Z,12.71
2017-02-17T07:50:49.473Z,12.74
2017-02-17T07:51:29.977Z,12.79
2017-02-17T07:52:10.491Z,12.7
2017-02-17T07:52:50.989Z,12.83
2017-02-17T07:53:31.493Z,12.86
2017-02-17T07:54:12.235Z,12.87
2017-02-17T07:54:53.188Z,12.83
2017-02-17T07:55:34.306Z,12.83
2017-02-17T07:56:14.993Z,12.71
2017-02-17T07:56:55.814Z,12.78
2017-02-17T07:57:36.082Z,12.79
2017-02-17T07:58:16.551Z,12.77
2017-02-17T07:58:57.482Z,12.74
2017-02-17T07:59:38.057Z,12.72
2017-02-17T08:00:18.768Z,12.64
2017-02-17T08:00:59.552Z,12.75
2017-02-17T08:01:39.947Z,12.67
2017-02-17T08:02:20.448Z,12.64
2017-02-17T08:03:00.996Z,12.65
2017-02-17T08:03:41.477Z,12.62
2017-02-17T08:04:21.963Z,12.62
2017-02-17T08:05:02.500Z,12.68
2017-02-17T08:05:42.969Z,12.74
2017-02-17T08:06:23.495Z,12.74
2017-02-17T08:07:04.475Z,12.72
2017-02-17T08:07:44.915Z,12.72
2017-02-17T08:08:25.412Z,12.83
2017-02-17T08:09:05.910Z,12.83
2017-02-17T08:09:46.369Z,12.87
2017-02-17T08:10:26.875Z,12.82
2017-02-17T08:11:07.374Z,12.89
2017-02-17T08:11:47.854Z,13.1
2017-02-17T08:12:28.415Z,13.1
2017-02-17T08:13:08.906Z,12.95
2017-02-17T08:13:49.433Z,12.53
2017-02-17T08:14:29.949Z,12.53
2017-02-17T08:15:10.392Z,12.57
2017-02-17T08:15:50.904Z,12.64
2017-02-17T08:16:31.414Z,12.71
2017-02-17T08:17:11.856Z,12.74
2017-02-17T08:17:52.406Z,12.71
2017-02-17T08:18:32.897Z,12.85
2017-02-17T08:19:13.382Z,12.85
2017-02-17T08:19:53.908Z,12.97
2017-02-17T08:20:34.424Z,13.2
2017-02-17T08:21:14.899Z,13.45
2017-02-17T08:21:55.433Z,13.57
2017-02-17T08:22:35.870Z,13.55
2017-02-17T08:23:16.434Z,13.54
2017-02-17T08:23:56.797Z,13.54
2017-02-17T08:24:37.344Z,13.63
2017-02-17T08:25:17.855Z,13.57
2017-02-17T08:25:58.328Z,13.55
2017-02-17T08:26:38.830Z,13.54
2017-02-17T08:27:19.348Z,13.41
2017-02-17T08:27:59.946Z,13.22
2017-02-17T08:28:40.433Z,13.3
2017-02-17T08:29:20.994Z,13.23
2017-02-17T08:30:01.472Z,13.23
2017-02-17T08:30:41.987Z,13.08
2017-02-17T08:31:22.500Z,13.11
2017-02-17T08:32:02.994Z,13.28
2017-02-17T08:32:43.448Z,13.39
2017-02-17T08:33:23.964Z,13.3
2017-02-17T08:34:04.519Z,13.07
2017-02-17T08:36:03.459Z,13.07
2017-02-17T08:36:43.974Z,13.12
2017-02-17T08:37:24.601Z,13.08
2017-02-17T08:38:05.138Z,13.11
2017-02-17T08:38:45.666Z,13.23
2017-02-17T08:39:26.203Z,13.3
2017-02-17T08:40:06.675Z,13.44
2017-02-17T08:40:47.208Z,13.44
2017-02-17T08:41:27.692Z,13.59
2017-02-17T08:42:08.206Z,13.55
2017-02-17T08:42:48.714Z,13.6
2017-02-17T08:43:29.178Z,13.6
2017-02-17T08:44:09.635Z,13.67
2017-02-17T08:44:50.318Z,13.62
2017-02-17T08:45:30.810Z,13.73
2017-02-17T08:46:11.264Z,13.59
2017-02-17T08:46:51.791Z,13.55
2017-02-17T08:47:32.281Z,13.41
2017-02-17T08:48:12.719Z,13.54
2017-02-17T08:48:53.348Z,13.52
2017-02-17T08:49:33.901Z,13.51
2017-02-17T08:50:14.394Z,13.55
2017-02-17T08:50:54.875Z,13.54
2017-02-17T08:51:35.396Z,13.46
2017-02-17T08:52:15.868Z,13.44
2017-02-17T08:52:56.351Z,13.59